Latest Weather Observations for Low Isles

IDQ60801

Issued at 1:32 pm EST Thursday 5 March 2015 (issued every 30 minutes, with the page automatically refreshed every 10 minutes)

About weather observations | Map of weather stations | Latest weather observations for QLD | Other Formats
Station Details ID: 031037 Name: LOW ISLES LIGHTHOUSE Lat: -16.38 Lon: 145.56 Height: 2.9 m
Data from the previous 72 hours. | See also: Recent months at Low Isles
Date/Time
EST
Temp
°C
App
Temp
°C
Dew
Point
Rel
Hum
%
Delta-T
°C
Wind Press
QNH
hPa
Press
MSL
hPa
Rain
since 9 am
mm
Dir
 
Spd
km/h
Gust
km/h
Spd
kts
Gust
kts
05/01:00pm 30.9 33.4 24.8 70 4.3 SE 20 24 11 13 1008.3 - 0.0
05/12:30pm 30.4 32.6 24.3 70 4.3 SE 20 24 11 13 1008.8 - 0.0
05/11:30am 30.0 31.4 24.2 71 4.0 SE 24 30 13 16 1009.7 - 0.0
05/11:00am 29.9 31.0 24.3 72 3.9 SE 26 28 14 15 1010.1 - 0.0
05/10:30am 29.3 30.3 24.2 74 3.5 SSE 26 30 14 16 1010.4 - 0.0
05/10:00am 29.1 29.6 24.0 74 3.5 SSE 28 30 15 16 1010.6 - 0.0
05/09:30am 28.6 29.5 23.9 75 3.2 SSE 26 30 14 16 1010.4 - 0.0
05/09:00am 28.7 29.8 23.6 74 3.5 SSE 24 32 13 17 1010.3 1010.2 3.2
05/08:30am 28.3 29.5 23.9 77 3.0 SSE 24 30 13 16 1010.0 - 3.2
05/08:00am 28.2 30.1 23.8 77 3.0 SSE 20 26 11 14 1009.9 - 3.2
05/07:30am 28.1 29.7 23.9 78 2.9 SSE 22 28 12 15 1009.7 - 3.2
05/07:00am 27.7 29.7 23.9 80 2.6 SSE 20 24 11 13 1009.1 - 3.2
05/06:30am 27.3 28.9 23.3 79 2.7 S 20 24 11 13 1008.7 - 3.2
05/06:00am 27.0 28.0 22.8 78 2.9 S 22 20 12 11 1008.5 1008.4 3.0
05/05:30am 26.7 27.6 23.4 82 2.3 S 24 28 13 15 1008.0 - 3.0
05/05:00am 26.1 25.9 24.0 88 1.4 S 32 35 17 19 1008.2 - 3.0
05/04:44am 25.8 24.7 23.5 87 1.6 SSE 35 39 19 21 1008.2 - 3.0
05/04:35am 27.0 25.8 23.9 83 2.1 SE 37 46 20 25 1008.1 - 1.0
05/04:30am 27.8 28.9 23.6 78 2.9 SSE 24 30 13 16 1008.0 - 0.2
05/04:00am 27.4 29.5 23.8 81 2.5 SSE 19 20 10 11 1007.9 - 0.2
05/03:30am 27.4 29.1 24.0 82 2.3 SSE 22 28 12 15 1007.7 - 0.2
05/03:00am 27.5 28.0 23.9 81 2.5 SSE 28 32 15 17 1008.1 1008.0 0.2
05/02:30am 27.6 29.4 24.2 82 2.4 SSE 22 28 12 15 1008.3 - 0.2
05/02:00am 27.5 28.1 23.5 79 2.7 SSE 26 30 14 16 1008.6 - 0.2
05/01:30am 27.6 28.5 24.0 81 2.5 SSE 26 30 14 16 1008.8 - 0.2
05/01:00am 27.8 29.0 23.8 79 2.8 SSE 24 28 13 15 1009.0 - 0.2
05/12:30am 27.9 29.8 23.7 78 2.9 SSE 20 26 11 14 1009.2 - 0.2
05/12:00am 27.9 28.6 23.7 78 2.9 SSE 26 30 14 16 1009.5 1009.4 0.2
 
Date/Time
EST
Temp
°C
App
Temp
°C
Dew
Point
Rel
Hum
%
Delta-T
°C
Wind Press
QNH
hPa
Press
MSL
hPa
Rain
since 9 am
mm
Dir
 
Spd
km/h
Gust
km/h
Spd
kts
Gust
kts
04/11:30pm 28.0 27.9 24.2 80 2.6 SSE 32 37 17 20 1009.6 - 0.2
04/11:00pm 28.2 28.3 24.6 81 2.5 SSE 32 35 17 19 1009.8 - 0.2
04/10:30pm 28.7 29.4 24.9 80 2.7 SE 30 35 16 19 1010.3 - 0.2
04/10:00pm 28.2 28.5 24.2 79 2.8 SSE 30 35 16 19 1010.1 - 0.2
04/09:30pm 28.2 28.1 24.6 81 2.5 SE 33 39 18 21 1009.9 - 0.2
04/09:00pm 28.4 28.4 24.4 79 2.8 SE 32 35 17 19 1009.8 1009.7 0.2
04/08:30pm 28.4 29.0 24.2 78 2.9 SE 28 33 15 18 1009.6 - 0.2
04/08:00pm 27.5 30.3 23.7 80 2.6 ESE 15 24 8 13 1009.4 - 0.2
04/07:30pm 27.3 28.3 23.5 80 2.6 E 24 32 13 17 1009.2 - 0.2
04/07:15pm 27.3 26.3 22.0 73 3.6 E 30 48 16 26 1009.2 - 0.2
04/07:00pm 27.8 26.4 22.3 72 3.7 E 33 48 18 26 1009.3 - 0.2
04/06:30pm 28.7 29.0 24.3 77 3.1 SE 30 35 16 19 1008.6 - 0.2
04/06:00pm 28.7 28.7 23.8 75 3.4 SE 30 35 16 19 1008.5 1008.4 0.2
04/05:30pm 28.8 29.7 24.6 78 2.9 SE 28 33 15 18 1008.1 - 0.2
04/05:00pm 29.2 29.9 24.3 75 3.4 SE 28 33 15 18 1008.0 - 0.2
04/04:30pm 30.0 30.8 24.4 72 3.9 SE 28 33 15 18 1007.9 - 0.2
04/04:00pm 29.8 29.7 24.2 72 3.9 SSE 32 35 17 19 1007.8 - 0.2
04/03:30pm 30.2 30.6 24.4 71 4.0 SE 30 33 16 18 1007.9 - 0.2
04/03:00pm 30.2 30.0 24.1 70 4.2 SE 32 39 17 21 1007.9 1007.8 0.2
04/02:30pm 30.7 31.8 24.4 69 4.4 SE 26 30 14 16 1008.2 - 0.2
04/02:00pm 30.1 31.3 23.8 69 4.4 SE 24 28 13 15 1008.4 - 0.2
04/01:30pm 29.9 30.5 24.1 71 4.0 SSE 28 32 15 17 1008.7 - 0.2
04/01:00pm 29.1 29.2 24.0 74 3.5 SSE 30 35 16 19 1009.2 - 0.2
04/12:30pm 29.1 29.6 24.6 76 3.1 SSE 30 35 16 19 1009.7 - 0.2
04/12:00pm 29.1 29.2 24.0 74 3.5 SSE 30 35 16 19 1010.0 1009.9 0.2
04/11:30am 29.2 30.8 24.5 76 3.3 SE 24 32 13 17 1010.2 - 0.2
04/11:00am 29.1 30.9 24.9 78 2.9 SSE 24 26 13 14 1010.3 - 0.2
04/10:30am 27.7 29.8 24.1 81 2.5 SSE 20 28 11 15 1010.3 - 0.0
04/10:00am 27.0 27.1 23.9 83 2.1 SSE 30 35 16 19 1010.4 - 0.0
04/09:30am 27.8 27.8 23.8 79 2.8 SSE 30 33 16 18 1010.2 - 0.0
04/09:00am 28.1 28.2 23.9 78 2.9 SSE 30 33 16 18 1010.0 1009.9 1.0
04/08:30am 27.7 27.7 23.7 79 2.7 SSE 30 37 16 20 1009.5 - 1.0
04/08:00am 27.5 27.2 23.9 81 2.5 SSE 32 35 17 19 1009.3 - 1.0
04/07:30am 26.9 26.8 24.2 85 1.9 SSE 32 35 17 19 1009.2 - 0.8
04/07:00am 26.6 26.6 24.4 88 1.5 SSE 32 39 17 21 1009.0 - 0.8
04/06:30am 26.2 22.9 23.3 84 2.0 SSE 46 57 25 31 1009.0 - 0.6
04/06:20am 27.8 26.5 23.2 76 3.1 SSE 35 54 19 29 1008.6 - 0.4
04/06:00am 27.7 26.8 22.9 75 3.3 SSE 32 35 17 19 1008.4 1008.3 0.4
04/05:30am 27.7 27.2 22.9 75 3.3 SSE 30 35 16 19 1008.1 - 0.4
04/05:00am 27.7 26.9 23.1 76 3.1 SSE 32 37 17 20 1007.8 - 0.4
04/04:30am 27.6 28.0 23.2 77 3.0 SSE 26 35 14 19 1007.7 - 0.4
04/04:00am 27.1 26.4 21.8 73 3.5 SSE 28 39 15 21 1007.7 - 0.4
04/03:30am 27.3 27.3 23.1 78 2.9 SSE 28 43 15 23 1007.8 - 0.4
04/03:00am 27.3 27.2 22.3 74 3.4 SSE 26 32 14 17 1008.2 1008.1 0.4
04/02:30am 27.5 27.4 22.9 76 3.1 SSE 28 32 15 17 1008.4 - 0.4
04/02:00am 27.4 26.9 22.8 76 3.1 SSE 30 35 16 19 1008.7 - 0.4
04/01:30am 27.5 26.5 22.7 75 3.3 S 32 37 17 20 1009.2 - 0.4
04/01:00am 27.8 26.9 22.1 71 3.8 SSE 30 37 16 20 1009.8 - 0.4
04/12:30am 27.9 27.1 23.1 75 3.3 S 32 35 17 19 1010.0 - 0.4
04/12:00am 28.0 27.1 22.9 74 3.5 S 32 35 17 19 1010.4 1010.3 0.4
 
Date/Time
EST
Temp
°C
App
Temp
°C
Dew
Point
Rel
Hum
%
Delta-T
°C
Wind Press
QNH
hPa
Press
MSL
hPa
Rain
since 9 am
mm
Dir
 
Spd
km/h
Gust
km/h
Spd
kts
Gust
kts
03/11:30pm 28.3 28.0 23.2 74 3.5 SSE 30 39 16 21 1010.5 - 0.4
03/11:00pm 29.0 28.2 23.4 72 3.8 SSE 33 39 18 21 1010.5 - 0.4
03/10:30pm 28.9 27.3 23.3 72 3.8 SSE 37 43 20 23 1010.5 - 0.4
03/10:00pm 28.4 26.7 22.4 70 4.1 SE 35 41 19 22 1010.4 - 0.4
03/09:30pm 28.7 26.1 22.2 68 4.4 SE 39 46 21 25 1010.2 - 0.4
03/09:00pm 28.8 27.2 23.2 71 3.8 SE 37 46 20 25 1009.9 1009.8 0.4
03/08:30pm 28.7 26.9 22.9 71 4.0 SE 37 48 20 26 1009.7 - 0.4
03/08:00pm 28.6 26.7 23.5 74 3.5 SE 39 46 21 25 1009.5 - 0.4
03/07:30pm 28.5 26.3 23.6 75 3.4 SE 41 48 22 26 1009.0 - 0.4
03/07:00pm 28.6 27.2 23.7 75 3.4 SE 37 44 20 24 1008.6 - 0.4
03/06:30pm 28.4 27.2 24.0 77 3.0 SE 37 43 20 23 1008.4 - 0.4
03/06:00pm 28.7 27.4 23.1 71 3.8 ESE 35 46 19 25 1008.0 1007.9 0.4
03/05:30pm 28.6 27.7 22.8 71 3.9 SE 32 43 17 23 1007.9 - 0.4
03/05:00pm 28.8 27.5 22.5 68 4.3 ESE 33 46 18 25 1008.0 - 0.4
03/04:30pm 28.4 27.3 22.4 70 4.1 SE 32 39 17 21 1007.8 - 0.4
03/04:00pm 27.8 26.5 23.2 76 3.1 ESE 35 46 19 25 1007.9 - 0.4
03/03:30pm 27.3 25.9 24.2 83 2.1 ESE 39 54 21 29 1008.0 - 0.4
03/03:26pm 27.3 27.3 24.7 86 1.8 ESE 33 54 18 29 1008.0 - 0.4
03/03:23pm 27.0 28.3 24.6 87 1.7 ESE 26 35 14 19 1008.1 - 0.4
03/03:00pm 26.1 22.6 23.0 83 2.1 E 46 59 25 32 1008.3 1008.2 0.4
03/02:48pm 28.3 28.4 23.9 77 3.0 E 30 43 16 23 1008.2 - 0.0
03/02:30pm 28.1 31.5 24.1 79 2.8 ENE 13 19 7 10 1008.1 - 0.0
03/02:13pm 27.4 28.8 22.8 76 3.1 ENE 20 24 11 13 1008.4 - 0.0
03/02:00pm 27.8 25.5 22.7 74 3.5 E 39 54 21 29 1008.5 - 0.0
03/01:54pm 28.5 26.6 22.7 71 3.9 E 37 54 20 29 1008.5 - 0.0
03/01:30pm 31.7 31.8 23.2 60 5.9 SE 28 35 15 19 1008.7 - 0.0
03/01:00pm 32.0 31.8 22.7 58 6.4 SE 28 32 15 17 1009.0 - 0.0
03/12:30pm 31.5 30.8 22.5 59 6.1 SE 30 33 16 18 1009.6 - 0.0
03/12:00pm 30.9 29.8 22.5 61 5.7 SE 32 37 17 20 1009.9 1009.8 0.0
03/11:30am 30.6 29.6 22.7 62 5.4 SE 32 39 17 21 1010.2 - 0.0
03/11:00am 30.1 29.7 24.0 70 4.2 SE 33 39 18 21 1010.5 - 0.0
03/10:30am 29.8 29.3 23.5 69 4.3 SE 32 39 17 21 1010.5 - 0.0
03/10:00am 29.7 29.9 23.4 69 4.3 SSE 28 32 15 17 1010.6 - 0.0
03/09:30am 29.2 30.1 23.4 71 4.0 SSE 24 32 13 17 1010.5 - 0.0
03/09:00am 28.9 30.1 23.8 74 3.5 SSE 24 28 13 15 1010.5 1010.4 4.8
03/08:30am 28.5 29.6 24.3 78 2.9 SSE 26 32 14 17 1010.3 - 4.8
03/08:00am 28.2 28.7 24.0 78 2.9 SSE 28 33 15 18 1009.9 - 4.8
03/07:30am 27.9 29.0 24.3 81 2.5 SE 26 30 14 16 1009.5 - 4.8
03/07:00am 27.7 29.3 24.5 83 2.2 SSE 24 28 13 15 1009.1 - 4.8
03/06:30am 27.5 29.6 24.7 85 1.9 SSE 22 26 12 14 1008.7 - 4.8
03/06:00am 27.1 28.6 24.4 85 1.9 S 24 30 13 16 1008.5 1008.4 4.8
03/05:30am 26.9 28.6 24.7 88 1.5 S 24 28 13 15 1008.2 - 4.6
03/05:00am 26.0 27.7 24.6 92 1.0 SSE 24 26 13 14 1007.9 - 4.6
03/04:30am 25.2 27.5 23.4 90 1.2 ESE 17 20 9 11 1007.8 - 4.6
03/04:00am 25.6 27.5 23.5 88 1.4 E 19 22 10 12 1007.6 - 4.6
03/03:33am 27.8 27.6 24.4 82 2.4 ESE 33 41 18 22 1007.8 - 2.0
03/03:30am 28.2 30.6 24.2 79 2.8 SE 19 22 10 12 1007.6 - 0.0
03/03:00am 27.8 29.7 23.4 77 3.0 SE 19 22 10 12 1007.9 1007.8 0.0
03/02:30am 27.8 29.2 23.6 78 2.9 SE 22 26 12 14 1008.1 - 0.0
03/02:00am 28.1 29.7 23.9 78 2.9 SSE 22 28 12 15 1008.3 - 0.0
03/01:30am 28.0 30.0 22.9 74 3.5 ESE 17 24 9 13 1008.6 - 0.0
03/01:00am 28.1 30.9 23.0 74 3.5 E 13 17 7 9 1008.9 - 0.0
03/12:30am 27.6 30.0 22.3 73 3.6 ESE 13 17 7 9 1009.2 - 0.0
03/12:00am 27.8 30.4 22.7 74 3.5 ESE 13 17 7 9 1009.6 1009.5 0.0
 
Date/Time
EST
Temp
°C
App
Temp
°C
Dew
Point
Rel
Hum
%
Delta-T
°C
Wind Press
QNH
hPa
Press
MSL
hPa
Rain
since 9 am
mm
Dir
 
Spd
km/h
Gust
km/h
Spd
kts
Gust
kts
02/11:30pm 27.5 29.4 22.0 72 3.7 ESE 15 17 8 9 1009.5 - 0.0
02/11:00pm 27.6 31.3 23.2 77 3.0 ESE 9 13 5 7 1009.4 - 0.0
02/10:30pm 27.6 30.7 22.8 75 3.3 ESE 11 13 6 7 1009.2 - 0.0
02/10:00pm 27.7 30.9 22.4 73 3.6 ESE 9 11 5 6 1009.2 - 0.0
02/09:30pm 28.0 30.5 22.5 72 3.7 ESE 13 15 7 8 1009.2 - 0.0
02/09:00pm 28.2 31.1 22.4 71 3.9 ESE 11 15 6 8 1008.9 1008.8 0.0
02/08:30pm 28.7 31.2 22.4 68 4.3 E 13 17 7 9 1008.7 - 0.0
02/08:00pm 28.7 31.3 22.7 70 4.1 ENE 13 17 7 9 1008.3 - 0.0
02/07:30pm 28.6 31.0 22.3 68 4.3 NE 13 17 7 9 1007.8 - 0.0
02/07:00pm 28.8 31.3 22.5 68 4.3 ENE 13 15 7 8 1007.5 - 0.0
02/06:30pm 29.4 32.0 22.6 67 4.6 ENE 13 17 7 9 1007.3 - 0.0
02/06:00pm 30.0 32.5 22.4 63 5.2 ENE 13 17 7 9 1007.2 1007.1 0.0
02/05:30pm 30.7 33.3 22.6 62 5.5 NE 13 19 7 10 1006.8 - 0.0
02/05:00pm 31.5 33.8 22.8 60 6.0 ENE 15 19 8 10 1006.5 - 0.0
02/04:30pm 32.5 34.2 22.3 55 7.0 ENE 17 20 9 11 1006.5 - 0.0
02/04:00pm 33.4 35.5 22.5 52 7.5 ENE 15 19 8 10 1006.2 - 0.0
02/03:30pm 33.9 36.2 22.7 52 7.7 ENE 15 19 8 10 1006.2 - 0.0
02/03:00pm 34.3 37.4 23.6 53 7.5 ENE 13 17 7 9 1006.3 1006.2 0.0
02/02:30pm 33.9 35.9 22.3 50 7.9 E 15 19 8 10 1006.6 - 0.0
02/02:00pm 34.6 37.2 23.3 52 7.9 ENE 15 19 8 10 1006.8 - 0.0

Other Formats:

Comma delimited format used in spreadsheet applications
http://www.bom.gov.au/fwo/IDQ60801/IDQ60801.94285.axf

JavaScript Object Notation format (JSON) in row-major order
http://www.bom.gov.au/fwo/IDQ60801/IDQ60801.94285.json